This is the latest recevied weather packets stored in our database for station/object IZ7XUV. If no packets are shown the sender has not sent any weather packets the latest 10 day(s).
| Time | Temp. | Humidity | Pressure | Rain* | Wind** | Luminosity | Snow |
|---|---|---|---|---|---|---|---|
| 1778145318 | 20.56° C | 74% | 1015 hPa | 0 mm | - | 664 W/m² | - |
| 1778142350 | 18.89° C | 79% | 1014.5 hPa | 0 mm | - | 236 W/m² | - |
| 1778139951 | 18.33° C | 81% | 1015 hPa | 0 mm | - | 153 W/m² | - |
| 1778138121 | 17.22° C | 84% | 1015.5 hPa | 0 mm | - | 301 W/m² | - |
| 1778136352 | 16.11° C | 91% | 1015.2 hPa | 0 mm | - | 122 W/m² | - |
| 1778135762 | 16.11° C | 92% | 1015.2 hPa | 0.25 mm | - | 115 W/m² | - |
| 1778135132 | 16.11° C | 93% | 1015.3 hPa | 0.25 mm | - | 94 W/m² | - |
| 1778130923 | 16.11° C | 93% | 1016.4 hPa | 1.02 mm | - | 18 W/m² | - |
| 1778129153 | 16.11° C | 93% | 1016.3 hPa | 2.29 mm | - | 8 W/m² | - |
| 1778128543 | 16.11° C | 93% | 1016.2 hPa | 3.3 mm | - | 11 W/m² | - |
| 1778126774 | 15.56° C | 92% | 1016.4 hPa | 4.06 mm | - | 1 W/m² | - |
| 1778124334 | 15.56° C | 92% | 1016.4 hPa | 2.54 mm | - | 0 W/m² | - |
| 1778120734 | 16.11° C | 88% | 1015.4 hPa | 1.02 mm | - | 0 W/m² | - |
| 1778116525 | 16.67° C | 88% | 1015.2 hPa | 0.51 mm | - | 0 W/m² | - |
| 1778114146 | 17.22° C | 85% | 1015.1 hPa | 0.25 mm | - | 0 W/m² | - |
| 1778105728 | 18.33° C | 71% | 1015 hPa | 0 mm | - | 0 W/m² | - |
| 1778104570 | 18.33° C | 76% | 1015.1 hPa | 0 mm | - | 0 W/m² | - |
| 1778100971 | 18.33° C | 77% | 1014.8 hPa | 0 mm | - | 0 W/m² | - |
| 1778096151 | 18.33° C | 76% | 1014 hPa | 0 mm | - | 0 W/m² | - |
| 1778094951 | 18.33° C | 76% | 1014 hPa | 0 mm | - | 0 W/m² | - |
| 1778089564 | 19.44° C | 73% | 1013.9 hPa | 0 mm | - | 3 W/m² | - |
| 1778087123 | 20° C | 71% | 1013.9 hPa | 0 mm | - | 31 W/m² | - |
| 1778082976 | 22.22° C | 64% | 1013.9 hPa | 0 mm | - | 144 W/m² | - |
| 1778081757 | 22.78° C | 64% | 1013.7 hPa | 0 mm | - | 149 W/m² | - |
| 1778081166 | 22.78° C | 63% | 1013.6 hPa | 0 mm | - | 181 W/m² | - |
* Rain latest hour (hover to see other rain measurements)
** Current wind speed in m/s (hover to see current wind gust speed)